Terminal Aerodrome Forecast
Issued by NWS

Home | Current Version | Previous Version | Text Only | Print | Product List | Glossary On
Versions: 1 2 3 4 5 6 7 8 9 10 11 12 13 14 15 16 17 18 19 20
000
FTUS44 KBMX 191124 CCA
TAFEET
TAF COR
KEET 191124Z 1912/2012 23005KT P6SM SCT250
      TEMPO 1912/1913 4SM BR
     FM191800 25007KT P6SM VCTS SCT025CB BKN050
      TEMPO 1920/1923 2SM TSRA BKN025CB
     FM200300 00000KT P6SM SCT250
     FM200800 00000KT 4SM BR SCT250=

USA.gov is the U.S. government's official web portal to all federal, state and local government web resources and services.